sensor_id;sensor_type;location;lat;lon;timestamp;temperature;humidity
42187;DHT22;27858;51.414;0.018;2023-08-07T04:00:39;12.00;99.90
42187;DHT22;27858;51.414;0.018;2023-08-07T04:03:06;12.00;99.90
42187;DHT22;27858;51.414;0.018;2023-08-07T04:05:33;12.00;99.90
42187;DHT22;27858;51.414;0.018;2023-08-07T04:08:00;12.00;99.90
42187;DHT22;27858;51.414;0.018;2023-08-07T04:10:27;11.90;99.90
42187;DHT22;27858;51.414;0.018;2023-08-07T04:12:54;11.90;99.90
42187;DHT22;27858;51.414;0.018;2023-08-07T04:15:20;11.90;99.90
42187;DHT22;27858;51.414;0.018;2023-08-07T04:17:47;11.90;99.90
42187;DHT22;27858;51.414;0.018;2023-08-07T04:20:14;11.90;99.90
42187;DHT22;27858;51.414;0.018;2023-08-07T04:22:40;11.90;99.90
42187;DHT22;27858;51.414;0.018;2023-08-07T04:25:07;11.90;99.90
42187;DHT22;27858;51.414;0.018;2023-08-07T04:27:34;11.90;99.90
42187;DHT22;27858;51.414;0.018;2023-08-07T04:30:00;11.90;99.90
42187;DHT22;27858;51.414;0.018;2023-08-07T04:32:27;11.80;99.90
42187;DHT22;27858;51.414;0.018;2023-08-07T04:34:54;11.80;99.90
42187;DHT22;27858;51.414;0.018;2023-08-07T04:37:21;11.90;99.90
42187;DHT22;27858;51.414;0.018;2023-08-07T04:39:47;11.90;99.90
42187;DHT22;27858;51.414;0.018;2023-08-07T04:42:14;11.80;99.90
42187;DHT22;27858;51.414;0.018;2023-08-07T04:44:41;11.80;99.90
42187;DHT22;27858;51.414;0.018;2023-08-07T04:47:07;11.80;99.90
42187;DHT22;27858;51.414;0.018;2023-08-07T04:49:34;11.80;99.90
42187;DHT22;27858;51.414;0.018;2023-08-07T04:52:01;11.90;99.90
42187;DHT22;27858;51.414;0.018;2023-08-07T04:54:38;11.80;99.90
42187;DHT22;27858;51.414;0.018;2023-08-07T04:57:05;11.80;99.90
42187;DHT22;27858;51.414;0.018;2023-08-07T04:59:31;11.80;99.90
42187;DHT22;27858;51.414;0.018;2023-08-07T05:01:58;11.80;99.90
42187;DHT22;27858;51.414;0.018;2023-08-07T05:04:25;11.80;99.90
42187;DHT22;27858;51.414;0.018;2023-08-07T05:06:51;11.70;99.90
42187;DHT22;27858;51.414;0.018;2023-08-07T05:09:18;11.80;99.90
42187;DHT22;27858;51.414;0.018;2023-08-07T05:11:45;11.80;99.90
42187;DHT22;27858;51.414;0.018;2023-08-07T05:14:11;11.70;99.90
42187;DHT22;27858;51.414;0.018;2023-08-07T05:16:38;11.80;99.90
42187;DHT22;27858;51.414;0.018;2023-08-07T05:19:05;11.80;99.90
42187;DHT22;27858;51.414;0.018;2023-08-07T05:21:31;11.80;99.90
42187;DHT22;27858;51.414;0.018;2023-08-07T05:23:58;11.90;99.90
42187;DHT22;27858;51.414;0.018;2023-08-07T05:26:24;11.80;99.90
42187;DHT22;27858;51.414;0.018;2023-08-07T05:28:51;11.80;99.90
42187;DHT22;27858;51.414;0.018;2023-08-07T05:31:18;11.90;99.90
42187;DHT22;27858;51.414;0.018;2023-08-07T05:33:44;11.80;99.90
42187;DHT22;27858;51.414;0.018;2023-08-07T05:36:11;11.90;99.90
42187;DHT22;27858;51.414;0.018;2023-08-07T05:38:38;11.90;99.90
42187;DHT22;27858;51.414;0.018;2023-08-07T05:41:04;11.90;99.90
42187;DHT22;27858;51.414;0.018;2023-08-07T05:43:31;12.00;99.90
42187;DHT22;27858;51.414;0.018;2023-08-07T05:45:58;12.00;99.90
42187;DHT22;27858;51.414;0.018;2023-08-07T05:48:25;12.00;99.90
42187;DHT22;27858;51.414;0.018;2023-08-07T05:50:52;12.10;99.90
42187;DHT22;27858;51.414;0.018;2023-08-07T05:53:19;12.10;99.90
42187;DHT22;27858;51.414;0.018;2023-08-07T05:55:46;12.10;99.90
42187;DHT22;27858;51.414;0.018;2023-08-07T05:58:13;12.10;99.90
42187;DHT22;27858;51.414;0.018;2023-08-07T06:00:39;12.20;99.90
42187;DHT22;27858;51.414;0.018;2023-08-07T06:03:06;12.30;99.90
42187;DHT22;27858;51.414;0.018;2023-08-07T06:05:33;12.40;99.90
42187;DHT22;27858;51.414;0.018;2023-08-07T06:08:00;12.40;99.90
42187;DHT22;27858;51.414;0.018;2023-08-07T06:10:27;12.50;99.90
42187;DHT22;27858;51.414;0.018;2023-08-07T06:12:53;12.50;99.90
42187;DHT22;27858;51.414;0.018;2023-08-07T06:15:20;12.60;99.90
42187;DHT22;27858;51.414;0.018;2023-08-07T06:17:47;12.60;99.90
42187;DHT22;27858;51.414;0.018;2023-08-07T06:20:13;12.70;99.90
42187;DHT22;27858;51.414;0.018;2023-08-07T06:22:42;12.80;99.90
42187;DHT22;27858;51.414;0.018;2023-08-07T06:25:09;12.80;99.90
42187;DHT22;27858;51.414;0.018;2023-08-07T06:27:35;12.80;99.90
42187;DHT22;27858;51.414;0.018;2023-08-07T06:30:02;12.90;99.90
42187;DHT22;27858;51.414;0.018;2023-08-07T06:32:29;13.00;99.90
42187;DHT22;27858;51.414;0.018;2023-08-07T06:34:56;13.00;99.90
42187;DHT22;27858;51.414;0.018;2023-08-07T06:37:22;13.00;99.90
42187;DHT22;27858;51.414;0.018;2023-08-07T06:39:49;13.10;99.90
42187;DHT22;27858;51.414;0.018;2023-08-07T06:42:16;13.10;99.90
42187;DHT22;27858;51.414;0.018;2023-08-07T06:44:42;13.20;99.90
42187;DHT22;27858;51.414;0.018;2023-08-07T06:47:09;13.30;99.90
42187;DHT22;27858;51.414;0.018;2023-08-07T06:49:36;13.30;99.90
42187;DHT22;27858;51.414;0.018;2023-08-07T06:52:03;13.40;99.90
42187;DHT22;27858;51.414;0.018;2023-08-07T06:54:30;13.50;99.90
42187;DHT22;27858;51.414;0.018;2023-08-07T06:56:56;13.50;99.90
42187;DHT22;27858;51.414;0.018;2023-08-07T06:59:23;13.50;99.90
42187;DHT22;27858;51.414;0.018;2023-08-07T07:01:50;13.60;99.90
42187;DHT22;27858;51.414;0.018;2023-08-07T07:04:17;13.60;99.90
42187;DHT22;27858;51.414;0.018;2023-08-07T07:06:44;13.70;99.90
42187;DHT22;27858;51.414;0.018;2023-08-07T07:09:11;13.70;99.90
42187;DHT22;27858;51.414;0.018;2023-08-07T07:11:43;13.80;99.90
42187;DHT22;27858;51.414;0.018;2023-08-07T07:14:10;13.90;99.90
42187;DHT22;27858;51.414;0.018;2023-08-07T07:16:37;14.10;99.90
42187;DHT22;27858;51.414;0.018;2023-08-07T07:19:04;14.10;99.90
42187;DHT22;27858;51.414;0.018;2023-08-07T07:21:34;14.20;99.90
42187;DHT22;27858;51.414;0.018;2023-08-07T07:24:02;14.20;99.90
42187;DHT22;27858;51.414;0.018;2023-08-07T07:26:29;14.30;99.90
42187;DHT22;27858;51.414;0.018;2023-08-07T07:28:55;14.30;99.90
42187;DHT22;27858;51.414;0.018;2023-08-07T07:31:22;14.40;99.90
42187;DHT22;27858;51.414;0.018;2023-08-07T07:33:49;14.50;99.90
42187;DHT22;27858;51.414;0.018;2023-08-07T07:36:16;14.60;99.90
42187;DHT22;27858;51.414;0.018;2023-08-07T07:38:44;14.70;99.90
42187;DHT22;27858;51.414;0.018;2023-08-07T07:41:12;14.70;99.90
42187;DHT22;27858;51.414;0.018;2023-08-07T07:43:38;14.80;99.90
42187;DHT22;27858;51.414;0.018;2023-08-07T07:46:05;14.80;99.90
42187;DHT22;27858;51.414;0.018;2023-08-07T07:48:32;14.90;99.90
42187;DHT22;27858;51.414;0.018;2023-08-07T07:50:59;14.90;99.90
42187;DHT22;27858;51.414;0.018;2023-08-07T07:53:26;15.00;99.90
42187;DHT22;27858;51.414;0.018;2023-08-07T07:55:53;15.10;99.90
42187;DHT22;27858;51.414;0.018;2023-08-07T07:58:20;15.10;99.90
42187;DHT22;27858;51.414;0.018;2023-08-07T08:00:47;15.10;99.90
42187;DHT22;27858;51.414;0.018;2023-08-07T08:03:14;15.10;99.90
42187;DHT22;27858;51.414;0.018;2023-08-07T08:05:41;15.10;99.90
42187;DHT22;27858;51.414;0.018;2023-08-07T08:08:07;15.20;99.90
42187;DHT22;27858;51.414;0.018;2023-08-07T08:10:34;15.30;99.90
42187;DHT22;27858;51.414;0.018;2023-08-07T08:13:01;15.40;99.90
42187;DHT22;27858;51.414;0.018;2023-08-07T08:15:30;15.40;99.90
42187;DHT22;27858;51.414;0.018;2023-08-07T08:17:57;15.50;99.90
42187;DHT22;27858;51.414;0.018;2023-08-07T08:20:23;15.50;99.90
42187;DHT22;27858;51.414;0.018;2023-08-07T08:22:50;15.70;99.90
42187;DHT22;27858;51.414;0.018;2023-08-07T08:25:17;15.70;99.90
42187;DHT22;27858;51.414;0.018;2023-08-07T08:27:44;15.80;99.90
42187;DHT22;27858;51.414;0.018;2023-08-07T08:30:11;15.80;99.90
42187;DHT22;27858;51.414;0.018;2023-08-07T08:32:38;15.90;99.90
42187;DHT22;27858;51.414;0.018;2023-08-07T08:35:05;16.00;99.90
42187;DHT22;27858;51.414;0.018;2023-08-07T08:37:32;16.10;99.90
42187;DHT22;27858;51.414;0.018;2023-08-07T08:39:59;16.10;99.90
42187;DHT22;27858;51.414;0.018;2023-08-07T08:42:25;16.10;99.90
42187;DHT22;27858;51.414;0.018;2023-08-07T08:44:53;16.20;99.90
42187;DHT22;27858;51.414;0.018;2023-08-07T08:47:20;16.30;99.90
42187;DHT22;27858;51.414;0.018;2023-08-07T08:50:02;16.30;99.90
42187;DHT22;27858;51.414;0.018;2023-08-07T08:52:31;16.50;99.90
42187;DHT22;27858;51.414;0.018;2023-08-07T08:54:58;16.60;99.90
42187;DHT22;27858;51.414;0.018;2023-08-07T08:57:25;16.60;99.90
42187;DHT22;27858;51.414;0.018;2023-08-07T08:59:53;16.80;99.90
42187;DHT22;27858;51.414;0.018;2023-08-07T09:02:19;17.00;99.90
42187;DHT22;27858;51.414;0.018;2023-08-07T09:04:46;17.00;99.90
42187;DHT22;27858;51.414;0.018;2023-08-07T09:07:13;17.00;99.90
42187;DHT22;27858;51.414;0.018;2023-08-07T09:09:41;17.00;99.90
42187;DHT22;27858;51.414;0.018;2023-08-07T09:12:08;17.00;99.90
42187;DHT22;27858;51.414;0.018;2023-08-07T09:14:38;17.10;99.90
42187;DHT22;27858;51.414;0.018;2023-08-07T09:17:06;17.20;99.90
42187;DHT22;27858;51.414;0.018;2023-08-07T09:19:32;17.20;99.90
42187;DHT22;27858;51.414;0.018;2023-08-07T09:21:59;17.20;99.90
42187;DHT22;27858;51.414;0.018;2023-08-07T09:24:26;17.10;99.90
42187;DHT22;27858;51.414;0.018;2023-08-07T09:26:53;17.30;99.90
42187;DHT22;27858;51.414;0.018;2023-08-07T09:29:22;17.50;99.90
42187;DHT22;27858;51.414;0.018;2023-08-07T09:31:48;17.60;99.90
42187;DHT22;27858;51.414;0.018;2023-08-07T09:34:15;17.60;99.90
42187;DHT22;27858;51.414;0.018;2023-08-07T09:36:45;17.80;99.90
42187;DHT22;27858;51.414;0.018;2023-08-07T09:39:12;17.90;99.90
42187;DHT22;27858;51.414;0.018;2023-08-07T09:41:39;18.00;99.90
42187;DHT22;27858;51.414;0.018;2023-08-07T09:44:06;18.00;99.90
42187;DHT22;27858;51.414;0.018;2023-08-07T09:46:43;17.80;99.90
42187;DHT22;27858;51.414;0.018;2023-08-07T09:49:10;17.90;99.90
42187;DHT22;27858;51.414;0.018;2023-08-07T09:51:43;18.00;99.90
42187;DHT22;27858;51.414;0.018;2023-08-07T09:54:10;17.90;99.90
42187;DHT22;27858;51.414;0.018;2023-08-07T09:56:38;18.00;99.90
42187;DHT22;27858;51.414;0.018;2023-08-07T09:59:06;18.00;99.90
42187;DHT22;27858;51.414;0.018;2023-08-07T10:01:33;18.30;99.90
42187;DHT22;27858;51.414;0.018;2023-08-07T10:04:02;18.20;99.90
42187;DHT22;27858;51.414;0.018;2023-08-07T10:06:29;18.30;99.90
42187;DHT22;27858;51.414;0.018;2023-08-07T10:08:56;18.40;99.90
42187;DHT22;27858;51.414;0.018;2023-08-07T10:11:23;18.30;95.10
42187;DHT22;27858;51.414;0.018;2023-08-07T10:13:50;18.40;95.10
42187;DHT22;27858;51.414;0.018;2023-08-07T10:16:17;18.30;98.10
42187;DHT22;27858;51.414;0.018;2023-08-07T10:18:44;18.60;97.60
42187;DHT22;27858;51.414;0.018;2023-08-07T10:21:10;18.90;93.80
42187;DHT22;27858;51.414;0.018;2023-08-07T10:23:37;18.90;91.60
42187;DHT22;27858;51.414;0.018;2023-08-07T10:26:05;18.80;93.20
42187;DHT22;27858;51.414;0.018;2023-08-07T10:28:34;18.90;83.60
42187;DHT22;27858;51.414;0.018;2023-08-07T10:31:05;18.90;72.00
42187;DHT22;27858;51.414;0.018;2023-08-07T10:33:32;18.90;82.60
42187;DHT22;27858;51.414;0.018;2023-08-07T10:35:59;19.10;81.60
42187;DHT22;27858;51.414;0.018;2023-08-07T10:38:26;19.10;84.50
42187;DHT22;27858;51.414;0.018;2023-08-07T10:41:05;19.20;83.50
42187;DHT22;27858;51.414;0.018;2023-08-07T10:43:45;19.10;69.30
42187;DHT22;27858;51.414;0.018;2023-08-07T10:46:13;19.20;43.50
42187;DHT22;27858;51.414;0.018;2023-08-07T10:51:06;19.10;48.60
42187;DHT22;27858;51.414;0.018;2023-08-07T10:53:34;19.10;44.50
42187;DHT22;27858;51.414;0.018;2023-08-07T10:56:01;19.20;62.40
42187;DHT22;27858;51.414;0.018;2023-08-07T11:03:42;19.30;31.80
42187;DHT22;27858;51.414;0.018;2023-08-07T11:06:09;19.10;41.20
42187;DHT22;27858;51.414;0.018;2023-08-07T11:08:36;19.10;59.40
42187;DHT22;27858;51.414;0.018;2023-08-07T11:11:06;19.00;49.60
42187;DHT22;27858;51.414;0.018;2023-08-07T11:13:33;19.00;49.70
42187;DHT22;27858;51.414;0.018;2023-08-07T11:16:01;19.10;56.90
42187;DHT22;27858;51.414;0.018;2023-08-07T11:18:28;19.20;47.20
42187;DHT22;27858;51.414;0.018;2023-08-07T11:20:55;19.20;28.00
42187;DHT22;27858;51.414;0.018;2023-08-07T11:23:25;19.20;24.50
42187;DHT22;27858;51.414;0.018;2023-08-07T11:25:54;19.30;29.90
42187;DHT22;27858;51.414;0.018;2023-08-07T11:28:24;19.30;28.10
42187;DHT22;27858;51.414;0.018;2023-08-07T11:30:52;19.40;26.60
42187;DHT22;27858;51.414;0.018;2023-08-07T11:33:18;19.30;5.50
42187;DHT22;27858;51.414;0.018;2023-08-07T11:35:46;19.60;14.60
42187;DHT22;27858;51.414;0.018;2023-08-07T11:38:15;19.80;3.60
42187;DHT22;27858;51.414;0.018;2023-08-07T11:40:56;19.70;1.00
42187;DHT22;27858;51.414;0.018;2023-08-07T11:43:22;19.60;1.00
42187;DHT22;27858;51.414;0.018;2023-08-07T11:45:49;19.70;1.00
42187;DHT22;27858;51.414;0.018;2023-08-07T11:48:16;19.60;1.00
42187;DHT22;27858;51.414;0.018;2023-08-07T11:50:43;19.60;1.00
42187;DHT22;27858;51.414;0.018;2023-08-07T11:53:09;19.90;1.00
42187;DHT22;27858;51.414;0.018;2023-08-07T11:55:37;20.20;9.00
42187;DHT22;27858;51.414;0.018;2023-08-07T11:58:12;20.20;1.00
42187;DHT22;27858;51.414;0.018;2023-08-07T12:00:41;20.20;1.00
42187;DHT22;27858;51.414;0.018;2023-08-07T12:05:55;20.20;1.00
42187;DHT22;27858;51.414;0.018;2023-08-07T12:08:22;20.20;1.00
42187;DHT22;27858;51.414;0.018;2023-08-07T12:10:55;20.40;1.00
42187;DHT22;27858;51.414;0.018;2023-08-07T12:13:25;20.40;1.00
42187;DHT22;27858;51.414;0.018;2023-08-07T12:15:55;20.30;1.00
42187;DHT22;27858;51.414;0.018;2023-08-07T12:18:26;20.40;1.00
42187;DHT22;27858;51.414;0.018;2023-08-07T12:21:00;20.80;1.00
42187;DHT22;27858;51.414;0.018;2023-08-07T12:23:27;20.90;1.00
42187;DHT22;27858;51.414;0.018;2023-08-07T12:25:54;21.10;1.00
42187;DHT22;27858;51.414;0.018;2023-08-07T12:28:21;21.10;1.00
42187;DHT22;27858;51.414;0.018;2023-08-07T12:30:47;21.10;1.00
42187;DHT22;27858;51.414;0.018;2023-08-07T12:33:14;21.10;1.00
42187;DHT22;27858;51.414;0.018;2023-08-07T12:35:41;21.20;1.00
42187;DHT22;27858;51.414;0.018;2023-08-07T12:38:08;21.70;99.90
42187;DHT22;27858;51.414;0.018;2023-08-07T12:40:36;21.80;99.90
42187;DHT22;27858;51.414;0.018;2023-08-07T12:43:03;21.50;99.90
42187;DHT22;27858;51.414;0.018;2023-08-07T12:45:30;21.10;1.00
42187;DHT22;27858;51.414;0.018;2023-08-07T12:48:00;21.40;1.00
42187;DHT22;27858;51.414;0.018;2023-08-07T12:50:27;21.20;99.90
42187;DHT22;27858;51.414;0.018;2023-08-07T12:52:54;21.10;99.90
42187;DHT22;27858;51.414;0.018;2023-08-07T12:55:21;21.10;1.00
42187;DHT22;27858;51.414;0.018;2023-08-07T12:57:48;21.30;1.00
42187;DHT22;27858;51.414;0.018;2023-08-07T13:00:17;21.30;99.90
42187;DHT22;27858;51.414;0.018;2023-08-07T13:02:45;21.20;99.90
42187;DHT22;27858;51.414;0.018;2023-08-07T13:05:12;20.90;99.90
42187;DHT22;27858;51.414;0.018;2023-08-07T13:07:39;20.80;99.90
42187;DHT22;27858;51.414;0.018;2023-08-07T13:10:07;21.00;99.90
42187;DHT22;27858;51.414;0.018;2023-08-07T13:12:38;21.40;99.90
42187;DHT22;27858;51.414;0.018;2023-08-07T13:15:05;21.50;99.90
42187;DHT22;27858;51.414;0.018;2023-08-07T13:17:33;21.30;99.90
42187;DHT22;27858;51.414;0.018;2023-08-07T13:20:01;21.50;99.90
42187;DHT22;27858;51.414;0.018;2023-08-07T13:22:29;21.50;99.90
42187;DHT22;27858;51.414;0.018;2023-08-07T13:24:56;21.50;99.90
42187;DHT22;27858;51.414;0.018;2023-08-07T13:27:22;21.30;99.90
42187;DHT22;27858;51.414;0.018;2023-08-07T13:29:49;21.40;99.90
42187;DHT22;27858;51.414;0.018;2023-08-07T13:32:16;21.50;99.90
42187;DHT22;27858;51.414;0.018;2023-08-07T13:34:44;21.50;99.90
42187;DHT22;27858;51.414;0.018;2023-08-07T13:37:12;22.00;99.90
42187;DHT22;27858;51.414;0.018;2023-08-07T13:39:39;22.40;99.90
42187;DHT22;27858;51.414;0.018;2023-08-07T13:42:07;22.00;99.90
42187;DHT22;27858;51.414;0.018;2023-08-07T13:44:33;21.90;99.90
42187;DHT22;27858;51.414;0.018;2023-08-07T13:47:00;21.70;99.90
42187;DHT22;27858;51.414;0.018;2023-08-07T13:49:27;21.70;99.90
42187;DHT22;27858;51.414;0.018;2023-08-07T13:51:53;21.80;99.90
42187;DHT22;27858;51.414;0.018;2023-08-07T13:54:20;21.90;99.90
42187;DHT22;27858;51.414;0.018;2023-08-07T13:56:47;21.90;99.90
42187;DHT22;27858;51.414;0.018;2023-08-07T13:59:13;21.70;99.90
42187;DHT22;27858;51.414;0.018;2023-08-07T14:01:40;22.10;99.90
42187;DHT22;27858;51.414;0.018;2023-08-07T14:04:07;22.50;99.90
42187;DHT22;27858;51.414;0.018;2023-08-07T14:06:34;22.30;99.90
42187;DHT22;27858;51.414;0.018;2023-08-07T14:09:00;22.00;99.90
42187;DHT22;27858;51.414;0.018;2023-08-07T14:11:27;21.90;99.90
42187;DHT22;27858;51.414;0.018;2023-08-07T14:13:57;21.80;99.90
42187;DHT22;27858;51.414;0.018;2023-08-07T14:16:24;22.00;99.90
42187;DHT22;27858;51.414;0.018;2023-08-07T14:18:51;21.90;99.90
42187;DHT22;27858;51.414;0.018;2023-08-07T14:21:18;22.20;99.90
42187;DHT22;27858;51.414;0.018;2023-08-07T14:23:45;22.60;99.90
42187;DHT22;27858;51.414;0.018;2023-08-07T14:26:13;22.60;99.90
42187;DHT22;27858;51.414;0.018;2023-08-07T14:28:39;22.90;99.90
42187;DHT22;27858;51.414;0.018;2023-08-07T14:31:07;22.70;99.90
42187;DHT22;27858;51.414;0.018;2023-08-07T14:33:34;22.60;99.90
42187;DHT22;27858;51.414;0.018;2023-08-07T14:36:01;22.50;99.90
42187;DHT22;27858;51.414;0.018;2023-08-07T14:38:28;22.90;99.90
42187;DHT22;27858;51.414;0.018;2023-08-07T14:40:55;22.90;99.90
42187;DHT22;27858;51.414;0.018;2023-08-07T14:43:22;22.90;99.90
42187;DHT22;27858;51.414;0.018;2023-08-07T14:45:49;23.30;99.90
42187;DHT22;27858;51.414;0.018;2023-08-07T14:48:15;23.10;99.90
42187;DHT22;27858;51.414;0.018;2023-08-07T14:50:42;23.30;99.90
42187;DHT22;27858;51.414;0.018;2023-08-07T14:53:09;23.60;99.90
42187;DHT22;27858;51.414;0.018;2023-08-07T14:55:35;23.60;99.90
42187;DHT22;27858;51.414;0.018;2023-08-07T14:58:02;23.70;99.90
42187;DHT22;27858;51.414;0.018;2023-08-07T15:00:29;23.10;99.90
42187;DHT22;27858;51.414;0.018;2023-08-07T15:02:56;22.70;99.90
42187;DHT22;27858;51.414;0.018;2023-08-07T15:05:24;22.90;99.90
42187;DHT22;27858;51.414;0.018;2023-08-07T15:07:50;23.20;99.90
42187;DHT22;27858;51.414;0.018;2023-08-07T15:10:17;23.10;99.90
42187;DHT22;27858;51.414;0.018;2023-08-07T15:12:44;23.20;99.90
42187;DHT22;27858;51.414;0.018;2023-08-07T15:15:11;23.00;99.90
42187;DHT22;27858;51.414;0.018;2023-08-07T15:17:37;22.80;99.90
42187;DHT22;27858;51.414;0.018;2023-08-07T15:20:04;23.10;99.90
42187;DHT22;27858;51.414;0.018;2023-08-07T15:22:31;23.00;99.90
42187;DHT22;27858;51.414;0.018;2023-08-07T15:24:57;22.60;99.90
42187;DHT22;27858;51.414;0.018;2023-08-07T15:27:24;22.50;99.90
42187;DHT22;27858;51.414;0.018;2023-08-07T15:29:51;22.30;99.90
42187;DHT22;27858;51.414;0.018;2023-08-07T15:32:17;22.50;99.90
42187;DHT22;27858;51.414;0.018;2023-08-07T15:34:47;22.40;99.90
42187;DHT22;27858;51.414;0.018;2023-08-07T15:37:14;22.50;99.90
42187;DHT22;27858;51.414;0.018;2023-08-07T15:39:41;23.00;99.90
42187;DHT22;27858;51.414;0.018;2023-08-07T15:42:07;23.10;99.90
42187;DHT22;27858;51.414;0.018;2023-08-07T15:44:34;23.20;99.90
42187;DHT22;27858;51.414;0.018;2023-08-07T15:47:01;23.60;99.90
42187;DHT22;27858;51.414;0.018;2023-08-07T15:49:28;23.50;99.90
42187;DHT22;27858;51.414;0.018;2023-08-07T15:51:55;23.40;99.90
42187;DHT22;27858;51.414;0.018;2023-08-07T15:54:21;23.60;99.90
42187;DHT22;27858;51.414;0.018;2023-08-07T15:56:49;23.50;99.90
42187;DHT22;27858;51.414;0.018;2023-08-07T15:59:16;23.80;99.90
42187;DHT22;27858;51.414;0.018;2023-08-07T16:01:43;23.80;99.90
42187;DHT22;27858;51.414;0.018;2023-08-07T16:04:09;23.30;99.90
42187;DHT22;27858;51.414;0.018;2023-08-07T16:06:36;22.90;99.90
42187;DHT22;27858;51.414;0.018;2023-08-07T16:09:04;22.70;99.90
42187;DHT22;27858;51.414;0.018;2023-08-07T16:11:31;22.80;99.90
42187;DHT22;27858;51.414;0.018;2023-08-07T16:13:58;22.60;99.90
42187;DHT22;27858;51.414;0.018;2023-08-07T16:16:25;22.10;99.90
42187;DHT22;27858;51.414;0.018;2023-08-07T16:18:51;22.10;99.90
42187;DHT22;27858;51.414;0.018;2023-08-07T16:21:18;22.20;99.90
42187;DHT22;27858;51.414;0.018;2023-08-07T16:23:44;22.30;99.90
42187;DHT22;27858;51.414;0.018;2023-08-07T16:26:11;22.40;99.90
42187;DHT22;27858;51.414;0.018;2023-08-07T16:28:38;22.50;99.90
42187;DHT22;27858;51.414;0.018;2023-08-07T16:31:04;22.60;99.90
42187;DHT22;27858;51.414;0.018;2023-08-07T16:33:31;22.80;99.90
42187;DHT22;27858;51.414;0.018;2023-08-07T16:35:58;22.60;99.90
42187;DHT22;27858;51.414;0.018;2023-08-07T16:38:24;22.50;99.90
42187;DHT22;27858;51.414;0.018;2023-08-07T16:40:51;22.70;99.90
42187;DHT22;27858;51.414;0.018;2023-08-07T16:43:18;23.10;99.90
42187;DHT22;27858;51.414;0.018;2023-08-07T16:45:44;23.20;99.90
42187;DHT22;27858;51.414;0.018;2023-08-07T16:48:11;23.00;99.90
42187;DHT22;27858;51.414;0.018;2023-08-07T16:50:38;22.80;99.90
42187;DHT22;27858;51.414;0.018;2023-08-07T16:53:07;22.70;99.90
42187;DHT22;27858;51.414;0.018;2023-08-07T16:55:35;22.40;99.90
42187;DHT22;27858;51.414;0.018;2023-08-07T16:58:01;22.10;99.90
42187;DHT22;27858;51.414;0.018;2023-08-07T17:00:28;22.00;99.90
42187;DHT22;27858;51.414;0.018;2023-08-07T17:02:55;21.70;99.90
42187;DHT22;27858;51.414;0.018;2023-08-07T17:05:22;21.70;99.90
42187;DHT22;27858;51.414;0.018;2023-08-07T17:07:50;21.60;99.90
42187;DHT22;27858;51.414;0.018;2023-08-07T17:10:17;21.60;99.90
42187;DHT22;27858;51.414;0.018;2023-08-07T17:12:43;21.70;99.90
42187;DHT22;27858;51.414;0.018;2023-08-07T17:15:10;21.70;99.90
42187;DHT22;27858;51.414;0.018;2023-08-07T17:17:37;21.70;99.90
42187;DHT22;27858;51.414;0.018;2023-08-07T17:20:04;21.70;99.90
42187;DHT22;27858;51.414;0.018;2023-08-07T17:22:30;21.90;99.90
42187;DHT22;27858;51.414;0.018;2023-08-07T17:24:57;22.00;99.90
42187;DHT22;27858;51.414;0.018;2023-08-07T17:27:24;22.40;99.90
42187;DHT22;27858;51.414;0.018;2023-08-07T17:29:51;22.80;99.90
42187;DHT22;27858;51.414;0.018;2023-08-07T17:32:19;23.00;99.90
42187;DHT22;27858;51.414;0.018;2023-08-07T17:34:46;22.90;99.90
42187;DHT22;27858;51.414;0.018;2023-08-07T17:37:13;22.40;99.90
42187;DHT22;27858;51.414;0.018;2023-08-07T17:39:40;22.30;99.90
42187;DHT22;27858;51.414;0.018;2023-08-07T17:42:07;22.30;99.90
42187;DHT22;27858;51.414;0.018;2023-08-07T17:44:34;22.10;99.90
42187;DHT22;27858;51.414;0.018;2023-08-07T17:47:00;22.10;99.90
42187;DHT22;27858;51.414;0.018;2023-08-07T17:49:27;22.30;99.90
42187;DHT22;27858;51.414;0.018;2023-08-07T17:51:54;22.30;99.90
42187;DHT22;27858;51.414;0.018;2023-08-07T17:54:21;22.30;99.90
42187;DHT22;27858;51.414;0.018;2023-08-07T17:56:47;22.20;99.90
42187;DHT22;27858;51.414;0.018;2023-08-07T17:59:15;22.00;99.90
42187;DHT22;27858;51.414;0.018;2023-08-07T18:01:42;21.60;99.90
42187;DHT22;27858;51.414;0.018;2023-08-07T18:04:08;21.50;99.90
42187;DHT22;27858;51.414;0.018;2023-08-07T18:06:35;21.30;99.90
42187;DHT22;27858;51.414;0.018;2023-08-07T18:09:02;21.20;99.90
42187;DHT22;27858;51.414;0.018;2023-08-07T18:11:29;21.20;99.90
42187;DHT22;27858;51.414;0.018;2023-08-07T18:13:56;21.20;99.90
42187;DHT22;27858;51.414;0.018;2023-08-07T18:16:22;21.20;99.90
42187;DHT22;27858;51.414;0.018;2023-08-07T18:18:49;21.10;99.90
42187;DHT22;27858;51.414;0.018;2023-08-07T18:21:16;20.90;99.90
42187;DHT22;27858;51.414;0.018;2023-08-07T18:23:44;20.90;99.90
42187;DHT22;27858;51.414;0.018;2023-08-07T18:26:10;20.80;99.90
42187;DHT22;27858;51.414;0.018;2023-08-07T18:28:37;20.70;99.90
42187;DHT22;27858;51.414;0.018;2023-08-07T18:31:05;20.60;99.90
42187;DHT22;27858;51.414;0.018;2023-08-07T18:33:32;20.40;99.90
42187;DHT22;27858;51.414;0.018;2023-08-07T18:35:59;20.50;99.90
42187;DHT22;27858;51.414;0.018;2023-08-07T18:38:27;20.30;99.90
42187;DHT22;27858;51.414;0.018;2023-08-07T18:40:53;20.20;99.90
42187;DHT22;27858;51.414;0.018;2023-08-07T18:43:20;20.20;99.90
42187;DHT22;27858;51.414;0.018;2023-08-07T18:45:47;20.00;99.90
42187;DHT22;27858;51.414;0.018;2023-08-07T18:48:14;19.90;99.90
42187;DHT22;27858;51.414;0.018;2023-08-07T18:50:41;19.90;99.90
42187;DHT22;27858;51.414;0.018;2023-08-07T18:53:07;19.80;99.90
42187;DHT22;27858;51.414;0.018;2023-08-07T18:55:34;19.60;1.00
42187;DHT22;27858;51.414;0.018;2023-08-07T18:58:01;19.60;1.00
42187;DHT22;27858;51.414;0.018;2023-08-07T19:00:28;19.50;1.00
42187;DHT22;27858;51.414;0.018;2023-08-07T19:02:54;19.60;1.00
42187;DHT22;27858;51.414;0.018;2023-08-07T19:05:21;19.60;1.00
42187;DHT22;27858;51.414;0.018;2023-08-07T19:07:48;19.50;1.00
42187;DHT22;27858;51.414;0.018;2023-08-07T19:10:14;19.40;1.00
42187;DHT22;27858;51.414;0.018;2023-08-07T19:12:41;19.30;1.00
42187;DHT22;27858;51.414;0.018;2023-08-07T19:15:08;19.20;1.00
42187;DHT22;27858;51.414;0.018;2023-08-07T19:17:39;19.10;1.00
42187;DHT22;27858;51.414;0.018;2023-08-07T19:20:05;19.00;1.00
42187;DHT22;27858;51.414;0.018;2023-08-07T19:22:33;19.00;1.00
42187;DHT22;27858;51.414;0.018;2023-08-07T19:24:59;18.90;1.00
42187;DHT22;27858;51.414;0.018;2023-08-07T19:27:26;18.80;1.00
42187;DHT22;27858;51.414;0.018;2023-08-07T19:29:53;18.80;1.00
42187;DHT22;27858;51.414;0.018;2023-08-07T19:32:20;18.70;1.00
42187;DHT22;27858;51.414;0.018;2023-08-07T19:34:47;18.70;1.00
42187;DHT22;27858;51.414;0.018;2023-08-07T19:37:13;18.60;1.00
42187;DHT22;27858;51.414;0.018;2023-08-07T19:39:40;18.60;1.00
42187;DHT22;27858;51.414;0.018;2023-08-07T19:42:07;18.50;1.00